Deweyville, UT (84309)

4:31 PM MDT on August 30, 2014 (GMT -0600)
2nd East | Change Station
CLOSE
Current Station
Personal Weather Station
Location: Garland, UT
Elevation: 4337 ft
Nearby Weather Stations

Elev 4337 ft 41.74 °N, 112.16 °W | Updated 53 seconds ago

Clear
Clear
83.3 °F
Feels Like 82 °F
N
4.7
Wind Variable Wind from SSW

Today
High -- | Low -- °F
--% Chance of Precip.
Yesterday
High -- | Low -- °F
Precip. -- in
6:52 AM 8:04 PM
Waxing Crescent, 25% visible
Pressure 29.88 in
Visibility 10.0 miles
Clouds Clear
Heat Index 82 °F
Dew Point 50 °F
Humidity 31%
Rainfall 0.00 in
Snow Depth Not available.
UV 6 out of 12
Pollen 8.60 out of 12
Ozone Good
PM2.5 Good
Flu Activity Not available.
METAR KBMC 302215Z AUTO 19009KT 10SM CLR 28/02 A2988 RMK AO1 T02800018

More Conditions Fewer Conditions

Pressure 29.88 in
Visibility 10.0 miles
Clouds Clear
Heat Index 82 °F
Dew Point 50 °F
Humidity 31%
Rainfall 0.00 in
Snow Depth Not available.
UV 6 out of 12
Pollen 8.60 out of 12
Ozone Good
PM2.5 Good
Flu Activity Not available.
METAR KBMC 302215Z AUTO 19009KT 10SM CLR 28/02 A2988 RMK AO1 T02800018

More Conditions Fewer Conditions

10-Day Weather Forecast

Almanac

Astronomy

Aug. 30, 2014 Rise Set
Actual Time 6:52 AM MDT 8:04 PM MDT
Civil Twilight 6:23 AM MDT 8:33 PM MDT
Nautical Twilight 5:49 AM MDT 9:07 PM MDT
Astronomical Twilight 5:13 AM MDT 9:43 PM MDT
Moon 11:48 AM MDT 10:36 PM MDT
Length of Visible Light 14h 09m
Length of Day
13h 12m
Tomorrow will be 2m 41s shorter.
Waxing Crescent, 25% of the Moon is Illuminated
Today
Waxing Crescent
Sep 2
First Quarter
Sep 8
Full
Sep 15
Last Quarter
Sep 24
New

Today's Extremes

State Highs State Lows

Community

WunderPhotos

Upload Photos

1,748,657 photos uploaded!

WunderBlogs® & News

Nearby

Air Quality

  Air Quality AQ Index Pollutant
Yesterday Moderate
OZONE
Yesterday Good
PM2.5
Current Good
OZONE
Current Good
PM2.5

Snow Depth

Station Depth Elevation
Ben Lomond Trail 0 in 6000 ft
Little Bear 0 in 6550 ft
Temple Fork 0 in 7406 ft
Hardscrabble 1 in 7250 ft
Louis Meadow 0 in 6700 ft

Earthquake Activity

City Distance Mag. Time & Date
No recent earthquake activity has been reported nearby.
Minimum magnitude displayed is 2.5.

Coastal Water Temperatures

Place Temperature
No Stations Reporting

Nearby Weather Stations